Time;durP1;ratioP1;P1;durP2;ratioP2;P2;SDS_P1;SDS_P2;PMS_P1;PMS_P2;Temp;Humidity;BMP_temperature;BMP_pressure;BME280_temperature;BME280_humidity;BME280_pressure;Samples;Min_cycle;Max_cycle;Signal;HPM_P1;HPM_P2
2021/03/31 00:01:03;;;;;;;3.88;3.35;;;;;;;;;;5158160;27;20688;-72
2021/03/31 00:03:30;;;;;;;6.40;3.97;;;;;;;;;;5157794;27;20205;-71
2021/03/31 00:05:56;;;;;;;7.35;4.18;;;;;;;;;;5157474;27;20218;-72
2021/03/31 00:08:22;;;;;;;8.02;3.55;;;;;;;;;;5157664;27;20202;-72
2021/03/31 00:10:49;;;;;;;5.05;3.90;;;;;;;;;;5157945;27;20249;-72
2021/03/31 00:13:15;;;;;;;6.38;3.95;;;;;;;;;;5157870;27;20588;-72
2021/03/31 00:15:42;;;;;;;11.40;3.08;;;;;;;;;;5157398;27;20264;-72
2021/03/31 00:18:09;;;;;;;4.60;3.50;;;;;;;;;;5157379;27;20288;-72
2021/03/31 00:20:36;;;;;;;4.38;3.20;;;;;;;;;;5157640;27;20209;-72
2021/03/31 00:23:03;;;;;;;7.45;3.50;;;;;;;;;;5155564;27;20201;-72
2021/03/31 00:25:29;;;;;;;3.88;3.40;;;;;;;;;;5157795;27;20564;-72
2021/03/31 00:27:55;;;;;;;5.10;3.88;;;;;;;;;;5157369;27;20278;-72
2021/03/31 00:30:22;;;;;;;7.78;4.05;;;;;;;;;;5139610;27;20265;-72
2021/03/31 00:32:49;;;;;;;5.10;4.20;;;;;;;;;;5136373;27;20206;-72
2021/03/31 00:35:15;;;;;;;5.57;3.33;;;;;;;;;;5136940;27;20602;-72
2021/03/31 00:37:42;;;;;;;5.10;3.25;;;;;;;;;;5136638;27;20695;-72
2021/03/31 00:40:09;;;;;;;5.38;3.15;;;;;;;;;;5136665;27;20669;-72
2021/03/31 00:42:35;;;;;;;5.72;3.58;;;;;;;;;;5136681;27;20198;-71
2021/03/31 00:45:01;;;;;;;7.10;3.47;;;;;;;;;;5136694;27;20205;-72
2021/03/31 00:47:28;;;;;;;5.47;3.75;;;;;;;;;;5136728;27;20217;-70
2021/03/31 00:49:54;;;;;;;5.53;4.03;;;;;;;;;;5136680;27;20615;-72
2021/03/31 00:52:20;;;;;;;6.63;3.90;;;;;;;;;;5137001;27;20186;-72
2021/03/31 00:54:47;;;;;;;5.35;3.53;;;;;;;;;;5136573;27;20209;-72
2021/03/31 00:57:14;;;;;;;5.22;3.67;;;;;;;;;;5145195;27;20194;-73
2021/03/31 00:59:40;;;;;;;4.82;3.20;;;;;;;;;;5157455;27;20556;-72
2021/03/31 01:02:06;;;;;;;5.57;3.10;;;;;;;;;;5157285;27;20623;-72
2021/03/31 01:04:32;;;;;;;5.70;3.03;;;;;;;;;;5157411;27;20182;-72
2021/03/31 01:06:58;;;;;;;5.78;3.78;;;;;;;;;;5156775;27;20486;-71
2021/03/31 01:09:24;;;;;;;5.50;3.83;;;;;;;;;;5157055;27;20199;-72
2021/03/31 01:11:58;;;;;;;4.00;3.60;;;;;;;;;;5156459;27;20215;-72
2021/03/31 01:14:26;;;;;;;5.85;3.65;;;;;;;;;;5156883;27;20200;-72
2021/03/31 01:16:54;;;;;;;6.97;3.90;;;;;;;;;;5156934;27;20189;-72
2021/03/31 01:19:38;;;;;;;5.00;3.88;;;;;;;;;;5154632;27;20204;-72
2021/03/31 01:22:22;;;;;;;7.63;4.15;;;;;;;;;;5137657;27;20617;-72
2021/03/31 01:25:03;;;;;;;4.97;3.50;;;;;;;;;;5156677;27;20189;-71
2021/03/31 01:27:36;;;;;;;5.25;3.67;;;;;;;;;;5156282;27;20235;-71
2021/03/31 01:30:10;;;;;;;6.57;3.75;;;;;;;;;;5156510;27;20654;-72
2021/03/31 01:32:51;;;;;;;3.78;3.20;;;;;;;;;;5156546;27;20250;-72
2021/03/31 01:35:19;;;;;;;3.78;3.35;;;;;;;;;;5134927;27;20289;-71
2021/03/31 01:37:48;;;;;;;5.10;3.42;;;;;;;;;;5156566;27;20208;-71
2021/03/31 01:40:16;;;;;;;4.82;3.42;;;;;;;;;;5156359;27;20291;-72
2021/03/31 01:42:46;;;;;;;4.13;3.70;;;;;;;;;;5156362;27;20205;-72
2021/03/31 01:45:14;;;;;;;8.50;3.42;;;;;;;;;;5156205;27;20231;-72
2021/03/31 01:47:42;;;;;;;6.78;4.35;;;;;;;;;;5155606;27;20295;-72
2021/03/31 01:50:09;;;;;;;9.15;3.80;;;;;;;;;;5156261;27;20265;-71
2021/03/31 01:52:36;;;;;;;5.10;3.13;;;;;;;;;;5155821;27;20264;-71
2021/03/31 01:55:03;;;;;;;4.18;3.78;;;;;;;;;;5156501;27;20239;-71
2021/03/31 01:57:29;;;;;;;6.45;4.18;;;;;;;;;;5155929;27;20192;-72
2021/03/31 01:59:56;;;;;;;5.45;3.30;;;;;;;;;;5155817;27;20207;-71
2021/03/31 02:02:23;;;;;;;4.20;3.80;;;;;;;;;;5155891;27;20204;-72
2021/03/31 02:04:49;;;;;;;4.57;3.28;;;;;;;;;;5155973;27;20207;-72
2021/03/31 02:07:17;;;;;;;11.43;3.60;;;;;;;;;;5155835;27;20308;-72
2021/03/31 02:09:45;;;;;;;4.60;3.08;;;;;;;;;;5155671;27;20247;-72
2021/03/31 02:12:12;;;;;;;5.28;3.60;;;;;;;;;;5155777;27;20240;-72
2021/03/31 02:14:40;;;;;;;5.97;3.65;;;;;;;;;;5155339;27;20236;-72
2021/03/31 02:17:07;;;;;;;9.93;4.28;;;;;;;;;;5155397;27;20258;-72
2021/03/31 02:19:34;;;;;;;4.43;3.92;;;;;;;;;;5153039;27;20642;-71
2021/03/31 02:22:00;;;;;;;6.30;3.80;;;;;;;;;;5155204;27;20184;-71
2021/03/31 02:24:28;;;;;;;6.13;3.70;;;;;;;;;;5155164;27;20197;-72
2021/03/31 02:26:54;;;;;;;7.50;3.75;;;;;;;;;;5155108;27;20238;-72
2021/03/31 02:29:21;;;;;;;6.38;3.30;;;;;;;;;;5155134;27;20198;-72
2021/03/31 02:31:47;;;;;;;8.60;3.55;;;;;;;;;;5155336;27;20207;-72
2021/03/31 02:34:13;;;;;;;4.97;3.50;;;;;;;;;;5155911;27;20212;-71
2021/03/31 02:36:40;;;;;;;6.30;3.25;;;;;;;;;;5154714;27;20700;-72
2021/03/31 02:39:06;;;;;;;7.60;3.15;;;;;;;;;;5155392;27;20203;-72
2021/03/31 02:41:35;;;;;;;4.80;3.53;;;;;;;;;;5155737;27;20183;-72
2021/03/31 02:44:06;;;;;;;5.03;2.88;;;;;;;;;;5155936;27;20207;-74
2021/03/31 02:46:33;;;;;;;5.15;4.03;;;;;;;;;;5155588;27;20208;-72
2021/03/31 02:48:59;;;;;;;4.97;3.97;;;;;;;;;;5155275;27;20614;-71
2021/03/31 02:51:26;;;;;;;8.43;3.60;;;;;;;;;;5155610;27;20306;-72
2021/03/31 02:53:51;;;;;;;6.35;4.10;;;;;;;;;;5155296;27;20199;-72
2021/03/31 02:56:17;;;;;;;3.80;2.80;;;;;;;;;;5138509;27;20196;-72
2021/03/31 02:58:44;;;;;;;7.45;3.60;;;;;;;;;;5155397;27;20447;-70
2021/03/31 03:01:13;;;;;;;4.30;2.72;;;;;;;;;;5155087;27;20199;-72
2021/03/31 03:03:39;;;;;;;4.60;3.50;;;;;;;;;;5154897;27;20234;-72
2021/03/31 03:06:05;;;;;;;12.98;3.53;;;;;;;;;;5154996;27;20319;-71
2021/03/31 03:08:31;;;;;;;4.38;3.90;;;;;;;;;;5155089;27;20202;-72
2021/03/31 03:10:58;;;;;;;6.63;4.35;;;;;;;;;;5155270;27;20209;-72
2021/03/31 03:13:25;;;;;;;4.30;2.90;;;;;;;;;;5154743;27;20244;-71
2021/03/31 03:15:51;;;;;;;9.48;4.18;;;;;;;;;;5154841;27;20211;-71
2021/03/31 03:18:17;;;;;;;6.50;4.45;;;;;;;;;;5155191;27;20206;-72
2021/03/31 03:20:43;;;;;;;4.20;3.22;;;;;;;;;;5154974;27;20192;-71
2021/03/31 03:23:09;;;;;;;5.80;3.73;;;;;;;;;;5155026;27;20220;-72
2021/03/31 03:25:36;;;;;;;5.55;3.70;;;;;;;;;;5154532;27;20434;-71
2021/03/31 03:28:03;;;;;;;3.33;3.03;;;;;;;;;;5155124;27;20245;-72
2021/03/31 03:30:30;;;;;;;6.57;4.40;;;;;;;;;;5155249;27;20201;-72
2021/03/31 03:32:57;;;;;;;5.85;3.63;;;;;;;;;;5158361;27;20265;-71
2021/03/31 03:35:24;;;;;;;6.35;3.35;;;;;;;;;;5159129;27;20673;-72
2021/03/31 03:37:50;;;;;;;12.27;4.45;;;;;;;;;;5159000;27;20229;-72
2021/03/31 03:40:17;;;;;;;4.68;3.22;;;;;;;;;;5158741;27;20201;-71
2021/03/31 03:42:43;;;;;;;4.32;3.15;;;;;;;;;;5158459;27;20225;-71
2021/03/31 03:45:09;;;;;;;7.28;3.88;;;;;;;;;;5141003;27;20223;-71
2021/03/31 03:47:36;;;;;;;9.90;4.22;;;;;;;;;;5137690;27;20210;-72
2021/03/31 03:50:03;;;;;;;4.38;3.50;;;;;;;;;;5138126;27;20203;-72
2021/03/31 03:52:30;;;;;;;5.00;3.67;;;;;;;;;;5137828;27;20205;-71
2021/03/31 03:54:56;;;;;;;6.93;3.90;;;;;;;;;;5137758;27;20203;-72
2021/03/31 03:57:23;;;;;;;4.72;4.13;;;;;;;;;;5138059;27;20198;-72
2021/03/31 03:59:49;;;;;;;5.75;3.67;;;;;;;;;;5137823;27;20195;-71
2021/03/31 04:02:15;;;;;;;5.18;3.65;;;;;;;;;;5137496;27;20271;-71
2021/03/31 04:04:41;;;;;;;5.68;3.40;;;;;;;;;;5137756;27;20599;-72
2021/03/31 04:07:07;;;;;;;5.20;3.57;;;;;;;;;;5137197;27;20226;-72
2021/03/31 04:09:34;;;;;;;7.70;4.63;;;;;;;;;;5137082;27;20448;-71
2021/03/31 04:12:01;;;;;;;4.70;3.80;;;;;;;;;;5137419;27;20451;-70
2021/03/31 04:14:27;;;;;;;3.88;3.53;;;;;;;;;;5145387;27;20640;-71
2021/03/31 04:16:54;;;;;;;4.15;3.63;;;;;;;;;;5158244;27;20711;-72
2021/03/31 04:19:20;;;;;;;5.57;3.63;;;;;;;;;;5158204;27;20270;-71
2021/03/31 04:21:46;;;;;;;19.80;4.30;;;;;;;;;;5158143;27;20280;-71
2021/03/31 04:24:13;;;;;;;6.72;4.85;;;;;;;;;;5157407;27;20183;-71
2021/03/31 04:26:40;;;;;;;7.22;4.43;;;;;;;;;;5157801;27;20667;-72
2021/03/31 04:29:07;;;;;;;5.93;3.85;;;;;;;;;;5158092;27;20607;-71
2021/03/31 04:31:36;;;;;;;6.18;4.78;;;;;;;;;;5157311;27;20205;-71
2021/03/31 04:34:02;;;;;;;6.00;4.03;;;;;;;;;;5158145;27;20198;-71
2021/03/31 04:36:29;;;;;;;11.15;4.07;;;;;;;;;;5157489;27;20592;-72
2021/03/31 04:38:55;;;;;;;8.27;3.83;;;;;;;;;;5157756;27;20186;-72
2021/03/31 04:41:21;;;;;;;15.13;4.13;;;;;;;;;;5157749;27;20212;-72
2021/03/31 04:43:48;;;;;;;6.90;4.15;;;;;;;;;;5155088;27;20190;-71
2021/03/31 04:46:14;;;;;;;5.65;4.90;;;;;;;;;;5152494;27;20202;-72
2021/03/31 04:48:40;;;;;;;17.60;13.82;;;;;;;;;;5156984;27;20202;-72
2021/03/31 04:51:07;;;;;;;11.40;7.78;;;;;;;;;;5157089;27;20635;-72
2021/03/31 04:53:33;;;;;;;11.10;5.55;;;;;;;;;;5157040;27;20198;-73
2021/03/31 04:56:00;;;;;;;8.45;5.57;;;;;;;;;;5156824;27;20275;-71
2021/03/31 04:58:26;;;;;;;5.97;3.83;;;;;;;;;;5155323;27;20198;-72
2021/03/31 05:00:53;;;;;;;5.20;3.58;;;;;;;;;;5141577;27;20557;-71
2021/03/31 05:03:19;;;;;;;8.93;5.55;;;;;;;;;;5147795;27;20633;-74
2021/03/31 05:05:45;;;;;;;7.07;4.20;;;;;;;;;;5136238;27;20216;-72
2021/03/31 05:08:11;;;;;;;10.48;5.45;;;;;;;;;;5150065;27;20647;-71
2021/03/31 05:10:37;;;;;;;14.63;4.50;;;;;;;;;;5156373;27;20198;-71
2021/03/31 05:13:03;;;;;;;17.37;5.27;;;;;;;;;;5156686;27;20194;-71
2021/03/31 05:15:29;;;;;;;11.73;5.15;;;;;;;;;;5157009;27;20824;-71
2021/03/31 05:17:56;;;;;;;9.13;4.65;;;;;;;;;;5156405;27;20198;-72
2021/03/31 05:20:22;;;;;;;13.90;6.22;;;;;;;;;;5156632;27;20262;-71
2021/03/31 05:22:48;;;;;;;7.00;5.70;;;;;;;;;;5155984;27;20241;-72
2021/03/31 05:25:14;;;;;;;10.57;5.78;;;;;;;;;;5156180;27;20178;-71
2021/03/31 05:27:41;;;;;;;7.05;4.88;;;;;;;;;;5156484;27;20222;-72
2021/03/31 05:30:07;;;;;;;6.75;4.47;;;;;;;;;;5155961;27;20187;-70
2021/03/31 05:32:33;;;;;;;8.57;4.88;;;;;;;;;;5156483;27;20604;-72
2021/03/31 05:35:00;;;;;;;5.93;5.13;;;;;;;;;;5156645;27;20206;-71
2021/03/31 05:37:26;;;;;;;12.73;4.97;;;;;;;;;;5155364;27;21022;-72
2021/03/31 05:39:52;;;;;;;11.60;4.25;;;;;;;;;;5155704;27;20186;-72
2021/03/31 05:42:19;;;;;;;10.32;4.65;;;;;;;;;;5155835;27;20200;-72
2021/03/31 05:44:45;;;;;;;7.18;5.68;;;;;;;;;;5156254;27;20526;-72
2021/03/31 05:47:17;;;;;;;6.75;5.20;;;;;;;;;;5154118;27;20214;-72
2021/03/31 05:49:43;;;;;;;13.57;6.40;;;;;;;;;;5155410;27;20198;-72
2021/03/31 05:52:10;;;;;;;13.35;5.25;;;;;;;;;;5155607;27;20206;-72
2021/03/31 05:54:36;;;;;;;11.20;6.40;;;;;;;;;;5154782;27;20635;-72
2021/03/31 05:57:02;;;;;;;9.07;5.73;;;;;;;;;;5155141;27;20226;-72
2021/03/31 05:59:28;;;;;;;5.35;4.80;;;;;;;;;;5154945;27;20425;-72
2021/03/31 06:01:54;;;;;;;9.23;5.75;;;;;;;;;;5153832;27;20652;-72
2021/03/31 06:04:20;;;;;;;12.40;5.27;;;;;;;;;;5155518;27;20223;-72
2021/03/31 06:06:46;;;;;;;9.23;6.15;;;;;;;;;;5155175;27;20432;-71
2021/03/31 06:09:13;;;;;;;22.77;6.60;;;;;;;;;;5155332;27;20263;-72
2021/03/31 06:11:51;;;;;;;18.63;4.88;;;;;;;;;;5155341;27;20443;-72
2021/03/31 06:14:28;;;;;;;11.27;5.65;;;;;;;;;;5153099;27;20509;-72
2021/03/31 06:17:02;;;;;;;8.00;5.80;;;;;;;;;;5146101;27;20210;-72
2021/03/31 06:19:28;;;;;;;9.75;5.35;;;;;;;;;;5134383;27;20198;-72
2021/03/31 06:21:59;;;;;;;18.00;7.95;;;;;;;;;;5150853;27;20201;-72
2021/03/31 06:24:30;;;;;;;8.55;6.13;;;;;;;;;;5155165;27;20194;-71
2021/03/31 06:26:57;;;;;;;9.23;5.97;;;;;;;;;;5155001;27;20178;-72
2021/03/31 06:29:23;;;;;;;7.07;5.63;;;;;;;;;;5155316;27;20202;-73
2021/03/31 06:31:49;;;;;;;10.30;5.27;;;;;;;;;;5155159;27;20558;-75
2021/03/31 06:34:16;;;;;;;9.90;5.85;;;;;;;;;;5154240;27;20524;-77
2021/03/31 06:36:44;;;;;;;6.93;5.35;;;;;;;;;;5153650;27;20221;-75
2021/03/31 06:39:17;;;;;;;12.27;7.75;;;;;;;;;;5154334;27;20203;-74
2021/03/31 06:41:51;;;;;;;14.90;7.18;;;;;;;;;;5151321;27;20615;-74
2021/03/31 06:44:29;;;;;;;9.32;6.57;;;;;;;;;;5153891;27;20180;-75
2021/03/31 06:47:03;;;;;;;13.30;6.43;;;;;;;;;;5153858;27;20203;-75
2021/03/31 06:49:29;;;;;;;13.70;6.82;;;;;;;;;;5154170;27;20184;-76
2021/03/31 06:52:01;;;;;;;19.63;7.95;;;;;;;;;;5154006;27;20637;-75
2021/03/31 06:54:27;;;;;;;16.75;7.40;;;;;;;;;;5154170;27;20654;-76
2021/03/31 06:56:56;;;;;;;15.60;7.90;;;;;;;;;;5153728;27;20278;-76
2021/03/31 06:59:28;;;;;;;9.75;7.50;;;;;;;;;;5153751;27;20226;-74
2021/03/31 07:01:54;;;;;;;10.50;6.50;;;;;;;;;;5153795;27;20201;-75
2021/03/31 07:04:20;;;;;;;11.45;7.00;;;;;;;;;;5153572;27;20198;-76
2021/03/31 07:06:58;;;;;;;11.02;7.22;;;;;;;;;;5156357;27;20187;-76
2021/03/31 07:09:24;;;;;;;15.43;9.18;;;;;;;;;;5157585;27;20239;-75
2021/03/31 07:11:50;;;;;;;22.80;10.82;;;;;;;;;;5157857;27;20198;-76
2021/03/31 07:14:18;;;;;;;15.75;8.77;;;;;;;;;;5157438;27;20184;-74
2021/03/31 07:16:45;;;;;;;14.52;8.75;;;;;;;;;;5157474;27;20612;-75
2021/03/31 07:19:11;;;;;;;11.68;8.50;;;;;;;;;;5157263;27;20197;-76
2021/03/31 07:21:38;;;;;;;11.85;8.98;;;;;;;;;;5157167;27;20254;-76
2021/03/31 07:24:05;;;;;;;14.55;8.13;;;;;;;;;;5157297;27;20213;-76
2021/03/31 07:26:33;;;;;;;9.27;8.07;;;;;;;;;;5157029;27;20212;-76
2021/03/31 07:28:59;;;;;;;17.42;8.32;;;;;;;;;;5157251;27;20206;-75
2021/03/31 07:31:28;;;;;;;12.07;8.00;;;;;;;;;;5157276;27;20283;-75
2021/03/31 07:34:08;;;;;;;14.73;8.90;;;;;;;;;;5157433;27;20194;-76
2021/03/31 07:36:34;;;;;;;17.60;9.25;;;;;;;;;;5156940;27;20229;-75
2021/03/31 07:39:02;;;;;;;14.05;8.88;;;;;;;;;;5157540;27;20675;-75
2021/03/31 07:41:28;;;;;;;12.07;8.02;;;;;;;;;;5157004;27;20565;-77
2021/03/31 07:43:56;;;;;;;11.77;7.28;;;;;;;;;;5156694;27;20205;-76
2021/03/31 07:46:26;;;;;;;8.18;6.95;;;;;;;;;;5157346;27;20265;-74
2021/03/31 07:48:54;;;;;;;15.35;9.95;;;;;;;;;;5157026;27;20224;-75
2021/03/31 07:51:22;;;;;;;13.05;8.85;;;;;;;;;;5156931;27;20572;-77
2021/03/31 07:53:49;;;;;;;15.65;8.25;;;;;;;;;;5157039;27;20680;-76
2021/03/31 07:56:16;;;;;;;13.02;7.70;;;;;;;;;;5156245;27;20288;-75
2021/03/31 07:58:42;;;;;;;11.40;7.18;;;;;;;;;;5156555;27;20286;-77
2021/03/31 08:01:09;;;;;;;28.75;8.90;;;;;;;;;;5156576;27;20259;-75
2021/03/31 08:03:37;;;;;;;12.32;6.97;;;;;;;;;;5156210;27;20204;-75
2021/03/31 08:06:20;;;;;;;9.98;7.55;;;;;;;;;;5156256;27;20342;-75
2021/03/31 08:08:58;;;;;;;16.88;7.55;;;;;;;;;;5156227;27;20196;-75
2021/03/31 08:11:43;;;;;;;13.98;7.63;;;;;;;;;;5156004;27;20210;-76
2021/03/31 08:14:10;;;;;;;12.98;7.43;;;;;;;;;;5156711;27;20292;-76
2021/03/31 08:16:37;;;;;;;13.95;6.82;;;;;;;;;;5155871;27;20556;-76
2021/03/31 08:19:05;;;;;;;15.02;8.27;;;;;;;;;;5155652;27;20641;-75
2021/03/31 08:21:32;;;;;;;15.18;7.47;;;;;;;;;;5156050;27;20521;-75
2021/03/31 08:24:01;;;;;;;14.23;6.97;;;;;;;;;;5156243;27;20184;-75
2021/03/31 08:26:32;;;;;;;13.15;7.65;;;;;;;;;;5156365;27;20207;-76
2021/03/31 08:28:58;;;;;;;13.15;7.53;;;;;;;;;;5155984;27;20216;-76
2021/03/31 08:31:26;;;;;;;13.52;6.25;;;;;;;;;;5155849;27;20191;-75
2021/03/31 08:33:52;;;;;;;24.55;11.95;;;;;;;;;;5156412;27;20193;-75
2021/03/31 08:36:18;;;;;;;17.77;8.50;;;;;;;;;;5156046;27;20241;-76
2021/03/31 08:38:49;;;;;;;16.48;9.75;;;;;;;;;;5155712;27;20309;-76
2021/03/31 08:41:17;;;;;;;11.07;6.90;;;;;;;;;;5155587;27;20292;-74
2021/03/31 08:43:45;;;;;;;11.80;7.63;;;;;;;;;;5156227;27;20595;-76
2021/03/31 08:46:11;;;;;;;20.58;9.00;;;;;;;;;;5155839;27;20190;-76
2021/03/31 08:48:38;;;;;;;20.13;6.93;;;;;;;;;;5155535;27;20202;-76
2021/03/31 08:51:08;;;;;;;13.93;7.43;;;;;;;;;;5155043;27;20198;-75
2021/03/31 08:53:35;;;;;;;12.30;6.70;;;;;;;;;;5155348;27;20202;-75
2021/03/31 08:56:02;;;;;;;13.43;6.20;;;;;;;;;;5155517;27;20201;-75
2021/03/31 08:58:30;;;;;;;11.15;6.57;;;;;;;;;;5155400;27;20217;-76
2021/03/31 09:00:58;;;;;;;14.23;8.25;;;;;;;;;;5155204;27;20194;-75
2021/03/31 09:03:28;;;;;;;15.60;6.75;;;;;;;;;;5155141;27;20209;-75
2021/03/31 09:05:55;;;;;;;11.38;6.43;;;;;;;;;;5155712;27;20202;-75
2021/03/31 09:08:22;;;;;;;17.48;7.18;;;;;;;;;;5155399;27;20246;-75
2021/03/31 09:10:51;;;;;;;9.68;5.53;;;;;;;;;;5155165;27;20596;-75
2021/03/31 09:13:23;;;;;;;11.75;6.03;;;;;;;;;;5155432;27;20200;-75
2021/03/31 09:15:53;;;;;;;15.18;6.15;;;;;;;;;;5155102;27;20185;-75
2021/03/31 09:18:19;;;;;;;7.68;5.55;;;;;;;;;;5154885;27;20221;-76
2021/03/31 09:20:46;;;;;;;10.88;6.30;;;;;;;;;;5155426;27;20201;-75
2021/03/31 09:23:18;;;;;;;12.73;6.40;;;;;;;;;;5154889;27;20335;-74
2021/03/31 09:25:52;;;;;;;11.20;7.00;;;;;;;;;;5154992;27;20285;-76
2021/03/31 09:28:18;;;;;;;8.00;6.00;;;;;;;;;;5154679;27;20182;-76
2021/03/31 09:30:49;;;;;;;9.30;5.45;;;;;;;;;;5153926;27;20202;-75
2021/03/31 09:33:25;;;;;;;10.18;5.43;;;;;;;;;;5154575;27;20195;-75
2021/03/31 09:35:51;;;;;;;13.25;4.55;;;;;;;;;;5154542;27;20234;-75
2021/03/31 09:38:24;;;;;;;6.72;5.38;;;;;;;;;;5154484;27;20661;-76
2021/03/31 09:41:00;;;;;;;10.93;5.90;;;;;;;;;;5154662;27;20295;-75
2021/03/31 09:43:26;;;;;;;8.60;5.53;;;;;;;;;;5155017;27;20187;-75
2021/03/31 09:45:54;;;;;;;11.23;4.70;;;;;;;;;;5154736;27;20201;-75
2021/03/31 09:48:21;;;;;;;10.00;5.82;;;;;;;;;;5154827;27;20581;-74
2021/03/31 09:50:47;;;;;;;8.38;4.75;;;;;;;;;;5154251;27;20201;-75
2021/03/31 09:53:13;;;;;;;9.77;4.97;;;;;;;;;;5154453;27;20224;-76
2021/03/31 09:55:40;;;;;;;6.03;3.93;;;;;;;;;;5153845;27;20201;-75
2021/03/31 09:58:06;;;;;;;17.65;7.70;;;;;;;;;;5154167;27;20478;-76
2021/03/31 10:00:34;;;;;;;8.40;5.13;;;;;;;;;;5154319;27;20204;-75
2021/03/31 10:03:00;;;;;;;8.82;4.65;;;;;;;;;;5154583;27;20439;-74
2021/03/31 10:05:27;;;;;;;18.33;5.00;;;;;;;;;;5154019;27;20540;-75
2021/03/31 10:07:57;;;;;;;6.80;3.80;;;;;;;;;;5153631;27;20534;-76
2021/03/31 10:10:39;;;;;;;5.40;3.47;;;;;;;;;;5154083;27;20442;-75
2021/03/31 10:13:06;;;;;;;8.30;4.70;;;;;;;;;;5153402;27;20454;-75
2021/03/31 10:15:32;;;;;;;5.50;3.50;;;;;;;;;;5154394;27;20423;-73
2021/03/31 10:17:58;;;;;;;6.63;5.20;;;;;;;;;;5153583;27;20486;-75
2021/03/31 10:20:29;;;;;;;7.70;4.07;;;;;;;;;;5154246;27;20439;-75
2021/03/31 10:22:56;;;;;;;6.47;4.80;;;;;;;;;;5153773;27;20443;-75
2021/03/31 10:25:23;;;;;;;7.53;3.93;;;;;;;;;;5153194;27;20441;-75
2021/03/31 10:27:49;;;;;;;8.30;4.37;;;;;;;;;;5153479;27;20534;-75
2021/03/31 10:30:22;;;;;;;6.97;3.70;;;;;;;;;;5153244;27;20901;-75
2021/03/31 10:32:49;;;;;;;8.30;3.83;;;;;;;;;;5153478;27;20439;-76
2021/03/31 10:35:16;;;;;;;6.33;3.67;;;;;;;;;;5153999;27;20532;-75
2021/03/31 10:37:56;;;;;;;6.87;4.30;;;;;;;;;;5153011;27;20483;-75
2021/03/31 10:40:51;;;;;;;6.03;4.60;;;;;;;;;;5153521;27;20423;-74
2021/03/31 10:49:16;;;;;;;5.50;4.20;;;;;;;;;;5155271;27;20479;-73
2021/03/31 10:51:54;;;;;;;6.50;4.27;;;;;;;;;;5155547;27;20864;-73
2021/03/31 10:54:24;;;;;;;6.20;3.87;;;;;;;;;;5148118;27;20562;-73
2021/03/31 10:56:53;;;;;;;9.13;3.60;;;;;;;;;;5146488;27;21029;-74
2021/03/31 10:59:19;;;;;;;4.20;3.60;;;;;;;;;;5134492;28;20455;-73
2021/03/31 11:01:45;;;;;;;8.53;5.13;;;;;;;;;;5134403;27;20853;-75
2021/03/31 11:04:12;;;;;;;5.43;3.27;;;;;;;;;;5134444;28;20436;-75
2021/03/31 11:06:38;;;;;;;7.57;3.23;;;;;;;;;;5134266;27;20444;-73
2021/03/31 11:09:04;;;;;;;8.37;4.00;;;;;;;;;;5154272;27;20920;-73
2021/03/31 11:11:31;;;;;;;4.60;2.57;;;;;;;;;;5153721;27;20522;-74
2021/03/31 11:13:58;;;;;;;5.03;3.17;;;;;;;;;;5133537;28;20448;-74
2021/03/31 11:16:26;;;;;;;4.70;3.30;;;;;;;;;;5134125;28;20886;-73
2021/03/31 11:18:59;;;;;;;7.60;4.33;;;;;;;;;;5153610;27;20439;-73
2021/03/31 11:27:05;;;;;;;3.03;2.63;;;;;;;;;;5154785;27;20410;-74
2021/03/31 11:29:32;;;;;;;3.63;2.70;;;;;;;;;;5154492;27;20530;-75
2021/03/31 11:31:59;;;;;;;3.30;3.00;;;;;;;;;;5154046;27;20424;-75
2021/03/31 11:34:25;;;;;;;4.20;3.07;;;;;;;;;;5154693;27;20512;-75
2021/03/31 11:36:53;;;;;;;5.40;3.00;;;;;;;;;;5154190;27;20550;-74
2021/03/31 11:39:19;;;;;;;3.73;2.70;;;;;;;;;;5154526;27;20885;-72
2021/03/31 11:41:45;;;;;;;3.30;2.77;;;;;;;;;;5154078;27;20483;-75
2021/03/31 11:44:12;;;;;;;8.00;2.60;;;;;;;;;;5154133;27;20445;-74
2021/03/31 11:46:39;;;;;;;6.67;3.37;;;;;;;;;;5154130;27;20427;-75
2021/03/31 11:49:05;;;;;;;5.43;2.70;;;;;;;;;;5154104;27;20988;-74
2021/03/31 11:51:31;;;;;;;3.80;3.00;;;;;;;;;;5154298;27;20428;-73
2021/03/31 11:53:57;;;;;;;3.30;2.57;;;;;;;;;;5158029;27;20526;-74
2021/03/31 11:56:24;;;;;;;6.63;2.97;;;;;;;;;;5158083;27;20512;-74
2021/03/31 11:58:50;;;;;;;7.10;3.30;;;;;;;;;;5157543;27;20529;-74
2021/03/31 12:01:16;;;;;;;3.40;2.63;;;;;;;;;;5158510;27;20490;-76
2021/03/31 12:03:43;;;;;;;2.60;2.30;;;;;;;;;;5157798;27;20478;-75
2021/03/31 12:06:09;;;;;;;5.20;2.93;;;;;;;;;;5157520;27;20446;-75
2021/03/31 12:08:35;;;;;;;9.20;2.73;;;;;;;;;;5157299;27;20467;-73
2021/03/31 12:11:02;;;;;;;6.57;2.63;;;;;;;;;;5157300;27;20526;-73
2021/03/31 12:13:29;;;;;;;3.70;2.17;;;;;;;;;;5157098;27;20528;-74
2021/03/31 12:15:55;;;;;;;6.27;3.80;;;;;;;;;;5157817;27;20472;-74
2021/03/31 12:18:21;;;;;;;4.93;2.50;;;;;;;;;;5157184;27;20482;-74
2021/03/31 12:20:48;;;;;;;5.37;2.80;;;;;;;;;;5158392;27;20450;-74
2021/03/31 12:23:15;;;;;;;4.27;2.60;;;;;;;;;;5157620;27;20522;-75
2021/03/31 12:25:43;;;;;;;3.67;2.47;;;;;;;;;;5157931;27;20786;-74
2021/03/31 12:28:10;;;;;;;3.97;3.13;;;;;;;;;;5157090;27;20915;-74
2021/03/31 12:30:36;;;;;;;2.80;2.50;;;;;;;;;;5157814;27;20450;-73
2021/03/31 12:33:03;;;;;;;4.37;3.00;;;;;;;;;;5157340;27;20875;-73
2021/03/31 12:35:29;;;;;;;3.50;2.60;;;;;;;;;;5157655;27;20447;-74
2021/03/31 12:37:56;;;;;;;4.60;2.30;;;;;;;;;;5156883;27;20475;-74
2021/03/31 12:40:22;;;;;;;4.23;2.67;;;;;;;;;;5157344;27;20436;-74
2021/03/31 12:42:49;;;;;;;4.33;2.43;;;;;;;;;;5156579;27;20439;-74
2021/03/31 12:45:15;;;;;;;4.97;2.97;;;;;;;;;;5157898;27;20439;-73
2021/03/31 12:47:41;;;;;;;4.17;2.27;;;;;;;;;;5156573;27;20439;-75
2021/03/31 12:50:09;;;;;;;4.23;2.97;;;;;;;;;;5156666;27;20933;-72
2021/03/31 12:52:40;;;;;;;7.57;2.43;;;;;;;;;;5156623;27;20461;-73
2021/03/31 12:55:11;;;;;;;7.17;2.80;;;;;;;;;;5156405;27;20453;-73
2021/03/31 12:57:37;;;;;;;5.97;3.13;;;;;;;;;;5156492;27;20456;-74
2021/03/31 13:00:04;;;;;;;10.93;2.90;;;;;;;;;;5156594;27;20453;-73
2021/03/31 13:02:31;;;;;;;7.07;2.90;;;;;;;;;;5156509;27;20478;-74
2021/03/31 13:04:57;;;;;;;5.27;2.47;;;;;;;;;;5156282;27;20521;-72
2021/03/31 13:07:24;;;;;;;6.57;2.90;;;;;;;;;;5156492;27;20908;-74
2021/03/31 13:09:51;;;;;;;9.37;3.27;;;;;;;;;;5156522;27;20438;-73
2021/03/31 13:12:33;;;;;;;5.70;1.97;;;;;;;;;;5150780;27;20463;-74
2021/03/31 13:15:17;;;;;;;3.93;2.30;;;;;;;;;;5136581;27;20436;-72
2021/03/31 13:17:53;;;;;;;5.50;2.90;;;;;;;;;;5136115;27;20464;-73
2021/03/31 13:23:06;;;;;;;3.27;1.83;;;;;;;;;;5135801;27;20768;-74
2021/03/31 13:25:34;;;;;;;3.70;2.10;;;;;;;;;;5135390;27;20473;-73
2021/03/31 13:30:51;;;;;;;7.73;2.60;;;;;;;;;;5103862;27;20509;-73
2021/03/31 13:33:20;;;;;;;4.77;3.23;;;;;;;;;;5135523;27;20516;-73
2021/03/31 13:35:52;;;;;;;3.10;2.80;;;;;;;;;;5135159;27;20480;-73
2021/03/31 13:38:22;;;;;;;5.50;2.77;;;;;;;;;;5134694;27;20489;-74
2021/03/31 13:40:49;;;;;;;5.70;2.80;;;;;;;;;;5135508;27;20556;-73
2021/03/31 13:43:16;;;;;;;5.13;3.57;;;;;;;;;;5134965;27;20489;-73
2021/03/31 13:45:42;;;;;;;7.20;2.63;;;;;;;;;;5135649;27;20890;-73
2021/03/31 13:48:11;;;;;;;4.63;3.33;;;;;;;;;;5134818;27;20544;-73
2021/03/31 13:50:37;;;;;;;7.40;2.87;;;;;;;;;;5135248;27;20493;-72
2021/03/31 13:53:04;;;;;;;3.90;2.70;;;;;;;;;;5134893;27;20440;-73
2021/03/31 13:55:32;;;;;;;2.13;1.93;;;;;;;;;;5135012;27;20444;-74
2021/03/31 13:58:00;;;;;;;7.37;3.20;;;;;;;;;;5134926;27;20421;-75
2021/03/31 14:00:27;;;;;;;7.30;3.17;;;;;;;;;;5134964;27;20444;-73
2021/03/31 14:02:54;;;;;;;2.77;2.10;;;;;;;;;;5134702;27;20478;-74
2021/03/31 14:05:21;;;;;;;6.93;3.03;;;;;;;;;;5134319;27;20451;-73
2021/03/31 14:07:47;;;;;;;6.37;2.50;;;;;;;;;;5134899;27;20540;-73
2021/03/31 14:10:14;;;;;;;4.67;3.33;;;;;;;;;;5134697;27;20832;-72
2021/03/31 14:12:40;;;;;;;5.43;2.57;;;;;;;;;;5143144;27;20893;-74
2021/03/31 14:15:07;;;;;;;4.60;2.57;;;;;;;;;;5154409;27;20458;-74
2021/03/31 14:17:35;;;;;;;7.20;1.73;;;;;;;;;;5155193;27;20870;-75
2021/03/31 14:20:04;;;;;;;3.90;2.30;;;;;;;;;;5155292;27;20431;-73
2021/03/31 14:22:31;;;;;;;5.00;1.67;;;;;;;;;;5155210;27;20424;-74
2021/03/31 14:24:59;;;;;;;9.20;2.97;;;;;;;;;;5136876;27;20440;-74
2021/03/31 14:27:25;;;;;;;4.23;2.47;;;;;;;;;;5134298;27;20476;-74
2021/03/31 14:29:51;;;;;;;5.23;2.40;;;;;;;;;;5133924;27;20440;-74
2021/03/31 14:32:18;;;;;;;6.07;2.10;;;;;;;;;;5135100;27;20960;-73
2021/03/31 14:34:45;;;;;;;6.17;3.70;;;;;;;;;;5134469;27;20981;-72
2021/03/31 14:37:11;;;;;;;3.23;2.37;;;;;;;;;;5133551;27;20464;-73
2021/03/31 14:39:37;;;;;;;7.90;4.13;;;;;;;;;;5134713;27;20440;-74
2021/03/31 14:42:04;;;;;;;3.90;2.13;;;;;;;;;;5134063;27;20535;-73
2021/03/31 14:44:31;;;;;;;3.67;3.03;;;;;;;;;;5134147;27;20417;-74
2021/03/31 14:46:57;;;;;;;3.27;2.50;;;;;;;;;;5134788;27;20764;-74
2021/03/31 14:49:25;;;;;;;4.30;2.40;;;;;;;;;;5133888;28;20471;-74
2021/03/31 14:55:20;;;;;;;5.60;2.23;;;;;;;;;;5096712;28;20424;-73
2021/03/31 14:59:26;;;;;;;5.80;3.90;;;;;;;;;;5133993;28;20734;-74
2021/03/31 15:00:40;;;;;;;6.63;2.60;;;;;;;;;;5133979;28;20436;-74
2021/03/31 15:03:07;;;;;;;3.73;2.03;;;;;;;;;;5134134;28;20439;-74